createdAt,value
2023-04-10T00:00:01.432Z,102.0
2023-04-10T00:05:01.563Z,102.4
2023-04-10T00:10:06.405Z,102.2
2023-04-10T00:15:01.516Z,102.0
2023-04-10T00:20:01.398Z,101.4
2023-04-10T00:25:01.587Z,101.5
2023-04-10T00:30:01.395Z,97.8
2023-04-10T00:35:01.524Z,96.2
2023-04-10T00:40:01.387Z,91.8
2023-04-10T00:45:01.502Z,92.4
2023-04-10T00:50:01.432Z,86.2
2023-04-10T00:55:01.553Z,85.5
2023-04-10T01:00:01.376Z,77.3
2023-04-10T01:05:01.501Z,73.4
2023-04-10T01:10:01.408Z,72.7
2023-04-10T01:15:01.497Z,78.9
2023-04-10T01:20:01.421Z,69.2
2023-04-10T01:25:01.540Z,79.2
2023-04-10T01:45:01.505Z,90.4
2023-04-10T01:55:01.481Z,90.5
2023-04-10T02:00:01.400Z,89.3
2023-04-10T02:05:01.697Z,75.7
2023-04-10T02:10:01.431Z,75.8
2023-04-10T02:25:01.115Z,85.0
2023-04-10T02:30:00.923Z,83.0
2023-04-10T02:35:01.070Z,63.1
2023-04-10T02:40:00.926Z,55.5
2023-04-10T02:45:01.996Z,62.4
2023-04-10T02:50:00.936Z,63.8
2023-04-10T02:55:00.985Z,65.2
2023-04-10T03:00:00.882Z,75.7
2023-04-10T03:05:05.959Z,80.1
2023-04-10T03:10:00.863Z,74.6
2023-04-10T03:15:00.928Z,61.3
2023-04-10T03:20:00.839Z,48.6
2023-04-10T03:25:00.925Z,45.2
2023-04-10T03:30:00.866Z,39.2
2023-04-10T03:35:00.978Z,30.9
2023-04-10T03:40:00.848Z,28.3
2023-04-10T03:45:00.948Z,37.5
2023-04-10T03:50:00.849Z,43.3
2023-04-10T03:55:00.912Z,49.8
2023-04-10T04:00:01.868Z,47.9
2023-04-10T04:05:01.020Z,55.1
2023-04-10T04:10:00.853Z,49.3
2023-04-10T04:15:00.969Z,42.6
2023-04-10T04:20:00.834Z,35.5
2023-04-10T04:25:01.024Z,38.2
2023-04-10T04:30:00.836Z,34.2
2023-04-10T04:35:00.903Z,26.8
2023-04-10T04:40:00.830Z,24.3
2023-04-10T04:45:00.954Z,20.0
2023-04-10T04:50:00.831Z,28.6
2023-04-10T04:55:00.960Z,39.4
2023-04-10T05:00:00.828Z,52.2
2023-04-10T05:05:01.066Z,55.9
2023-04-10T05:10:00.871Z,73.0
2023-04-10T05:15:00.942Z,74.0
2023-04-10T05:20:00.878Z,67.4
2023-04-10T05:25:00.975Z,64.8
2023-04-10T05:30:00.887Z,73.0
2023-04-10T05:35:01.017Z,75.1
2023-04-10T05:40:00.905Z,80.8
2023-04-10T05:45:01.009Z,90.6
2023-04-10T05:50:00.902Z,98.2
2023-04-10T05:55:01.093Z,95.5
2023-04-10T06:00:00.951Z,94.9
2023-04-10T06:05:01.087Z,93.0
2023-04-10T06:10:00.937Z,92.1
2023-04-10T06:15:01.020Z,93.3
2023-04-10T06:20:00.986Z,96.2
2023-04-10T06:25:01.107Z,97.0
2023-04-10T06:30:01.012Z,100.0
2023-04-10T06:35:01.153Z,103.5
2023-04-10T06:40:01.152Z,106.8
2023-04-10T06:45:01.197Z,108.4
2023-04-10T06:50:00.986Z,109.5
2023-04-10T06:55:01.072Z,107.2
2023-04-10T07:00:00.985Z,102.6
2023-04-10T07:05:01.053Z,95.8
2023-04-10T07:10:00.920Z,90.8
2023-04-10T07:15:00.915Z,87.3
2023-04-10T07:20:00.903Z,84.5
2023-04-10T07:25:01.068Z,85.8
2023-04-10T07:30:00.900Z,86.5
2023-04-10T07:35:00.945Z,86.7
2023-04-10T07:40:00.887Z,87.7
2023-04-10T07:45:00.988Z,88.2
2023-04-10T07:50:00.897Z,86.2
2023-04-10T07:55:01.024Z,85.5
2023-04-10T08:00:00.889Z,84.8
2023-04-10T08:05:01.114Z,83.8
2023-04-10T08:10:00.888Z,84.2
2023-04-10T08:15:00.967Z,84.9
2023-04-10T08:20:00.912Z,84.8
2023-04-10T08:25:01.066Z,85.2
2023-04-10T08:30:00.901Z,85.9
2023-04-10T08:35:00.962Z,86.0
2023-04-10T08:40:00.899Z,85.0
2023-04-10T08:45:01.143Z,85.4
2023-04-10T08:50:00.899Z,85.2
2023-04-10T08:55:01.020Z,85.0
2023-04-10T09:00:04.399Z,84.6
2023-04-10T09:05:01.045Z,87.1
2023-04-10T09:10:00.892Z,88.2
2023-04-10T09:15:00.944Z,88.7
2023-04-10T09:20:00.879Z,88.1
2023-04-10T09:25:00.972Z,87.6
2023-04-10T09:30:00.958Z,86.6
2023-04-10T09:35:00.933Z,84.8
2023-04-10T09:40:00.843Z,84.4
2023-04-10T09:45:01.025Z,85.9
2023-04-10T09:55:01.027Z,85.6
2023-04-10T10:00:05.964Z,87.6
2023-04-10T10:05:01.049Z,88.0
2023-04-10T10:10:00.835Z,87.8
2023-04-10T10:15:00.895Z,89.8
2023-04-10T10:35:00.883Z,101.8
2023-04-10T10:40:00.808Z,103.6
2023-04-10T10:45:00.914Z,101.8
2023-04-10T11:05:01.343Z,95.0
2023-04-10T11:10:01.224Z,98.4
2023-04-10T11:15:01.335Z,100.9
2023-04-10T11:20:01.250Z,102.4
2023-04-10T11:25:01.333Z,102.7
2023-04-10T11:30:01.233Z,104.0
2023-04-10T11:35:03.102Z,104.9
2023-04-10T11:40:01.221Z,104.3
2023-04-10T11:45:01.369Z,104.2
2023-04-10T12:05:01.054Z,103.6
2023-04-10T12:10:00.887Z,104.3
2023-04-10T12:15:00.959Z,103.3
2023-04-10T12:20:01.117Z,100.8
2023-04-10T12:25:00.967Z,100.2
2023-04-10T12:30:00.877Z,98.1
2023-04-10T12:35:01.002Z,97.3
2023-04-10T12:40:00.882Z,97.5
2023-04-10T12:45:00.984Z,95.2
2023-04-10T12:50:00.880Z,94.0
2023-04-10T13:00:01.010Z,92.0
2023-04-10T13:05:00.962Z,89.4
2023-04-10T13:10:05.923Z,93.9
2023-04-10T13:15:01.001Z,94.7
2023-04-10T13:20:00.872Z,96.6
2023-04-10T13:25:00.955Z,98.3
2023-04-10T13:30:00.867Z,98.6
2023-04-10T13:35:00.937Z,97.7
2023-04-10T13:40:00.865Z,98.5
2023-04-10T13:45:01.030Z,98.0
2023-04-10T13:50:00.870Z,97.0
2023-04-10T13:55:01.010Z,96.5
2023-04-10T14:00:00.869Z,96.0
2023-04-10T14:05:00.979Z,94.6
2023-04-10T14:10:00.874Z,91.7
2023-04-10T14:15:00.940Z,90.6
2023-04-10T14:20:01.928Z,90.5
2023-04-10T14:25:09.759Z,88.7
2023-04-10T14:30:00.866Z,87.0
2023-04-10T14:35:00.935Z,86.6
2023-04-10T14:40:01.892Z,84.8
2023-04-10T14:45:00.957Z,83.7
2023-04-10T14:50:00.875Z,82.4
2023-04-10T14:55:01.090Z,82.0
2023-04-10T15:00:00.880Z,81.3
2023-04-10T15:05:00.982Z,81.2
2023-04-10T15:10:00.872Z,80.5
2023-04-10T15:15:00.933Z,79.8
2023-04-10T15:20:00.871Z,79.0
2023-04-10T15:25:02.053Z,78.8
2023-04-10T15:30:00.866Z,79.2
2023-04-10T15:35:00.963Z,79.6
2023-04-10T15:40:00.896Z,80.4
2023-04-10T15:45:01.003Z,80.8
2023-04-10T15:50:00.904Z,80.7
2023-04-10T15:55:01.022Z,80.5
2023-04-10T16:00:00.906Z,80.5
2023-04-10T16:25:01.372Z,79.8
2023-04-10T16:30:01.259Z,79.4
2023-04-10T16:35:01.286Z,78.6
2023-04-10T16:40:01.298Z,78.3
2023-04-10T16:45:01.293Z,78.4
2023-04-10T16:50:01.256Z,78.2
2023-04-10T17:00:01.494Z,78.4
2023-04-10T17:05:01.294Z,78.5
2023-04-10T17:10:01.196Z,78.3
2023-04-10T17:20:00.806Z,79.0
2023-04-10T17:25:00.893Z,78.1
2023-04-10T17:35:01.364Z,78.4
2023-04-10T17:40:01.301Z,79.3
2023-04-10T17:45:01.374Z,79.7
2023-04-10T17:50:01.271Z,79.3
2023-04-10T17:55:01.396Z,79.0
2023-04-10T18:00:01.273Z,79.3
2023-04-10T18:05:01.416Z,79.2
2023-04-10T18:10:01.258Z,79.3
2023-04-10T18:15:01.322Z,79.2
2023-04-10T18:20:01.248Z,79.8
2023-04-10T18:30:01.405Z,80.6
2023-04-10T18:35:01.308Z,81.6
2023-04-10T18:55:01.498Z,85.6
2023-04-10T19:00:01.372Z,89.2
2023-04-10T19:05:01.494Z,86.9
2023-04-10T19:25:00.859Z,85.0
2023-04-10T19:30:00.751Z,86.0
2023-04-10T19:35:00.821Z,85.3
2023-04-10T19:40:00.758Z,86.9
2023-04-10T19:45:00.900Z,86.6
2023-04-10T19:50:00.788Z,86.1
2023-04-10T19:55:00.938Z,84.9
2023-04-10T20:00:00.790Z,83.8
2023-04-10T20:05:01.007Z,87.5
2023-04-10T20:10:00.856Z,89.1
2023-04-10T20:15:00.933Z,98.8
2023-04-10T20:20:00.776Z,110.5
2023-04-10T20:45:01.533Z,110.0
2023-04-10T20:50:01.505Z,116.7
2023-04-10T20:55:01.607Z,112.9
2023-04-10T21:00:01.583Z,119.8
2023-04-10T21:05:01.629Z,114.8
2023-04-10T21:10:01.508Z,111.4
2023-04-10T21:15:01.623Z,106.5
2023-04-10T21:20:01.537Z,106.1
2023-04-10T21:25:02.677Z,96.8
2023-04-10T21:30:01.496Z,97.2
2023-04-10T21:35:02.584Z,100.3
2023-04-10T21:40:01.498Z,104.0
2023-04-10T21:45:01.575Z,109.0
2023-04-10T21:50:01.508Z,115.2
2023-04-10T21:55:01.843Z,120.8
2023-04-10T22:00:01.486Z,123.1
2023-04-10T22:05:01.643Z,125.0
2023-04-10T22:10:01.469Z,123.9
2023-04-10T22:15:01.544Z,123.4
2023-04-10T22:20:01.472Z,123.8
2023-04-10T22:30:04.155Z,116.2
2023-04-10T22:35:01.696Z,108.0
2023-04-10T22:40:01.525Z,99.0
2023-04-10T22:45:01.595Z,88.9
2023-04-10T22:50:01.568Z,80.2
2023-04-10T22:55:01.516Z,78.9
2023-04-10T23:00:01.450Z,80.4
2023-04-10T23:05:01.549Z,85.4
2023-04-10T23:10:01.488Z,95.9
2023-04-10T23:15:01.568Z,103.2
2023-04-10T23:20:01.447Z,117.3
2023-04-10T23:25:01.665Z,130.1
2023-04-10T23:30:01.491Z,136.8
2023-04-10T23:35:01.571Z,144.2
2023-04-10T23:40:01.458Z,151.4
2023-04-10T23:45:01.520Z,170.4
2023-04-10T23:50:06.480Z,183.8
2023-04-10T23:55:01.573Z,198.5
